Time;durP1;ratioP1;P1;durP2;ratioP2;P2;SDS_P1;SDS_P2;PMS_P1;PMS_P2;Temp;Humidity;BMP_temperature;BMP_pressure;BME280_temperature;BME280_humidity;BME280_pressure;Samples;Min_cycle;Max_cycle;Signal;HPM_P1;HPM_P2
2021/12/26 00:01:52;;;;;;;;;;;4.10;94.80;;;;;;5011167;28;19917;-85
2021/12/26 00:04:19;;;;;;;;;;;4.10;94.90;;;;;;5027853;28;19904;-85
2021/12/26 00:06:46;;;;;;;;;;;4.00;94.80;;;;;;5020574;28;20124;-85
2021/12/26 00:09:12;;;;;;;;;;;4.10;94.90;;;;;;5014936;28;19913;-85
2021/12/26 00:11:39;;;;;;;;;;;4.10;94.80;;;;;;5018970;28;20277;-85
2021/12/26 00:14:06;;;;;;;;;;;4.00;94.80;;;;;;5010218;28;20527;-85
2021/12/26 00:16:33;;;;;;;;;;;4.00;94.80;;;;;;5012515;28;19917;-84
2021/12/26 00:19:00;;;;;;;;;;;4.00;94.80;;;;;;5019521;28;19909;-84
2021/12/26 00:21:27;;;;;;;;;;;4.10;94.80;;;;;;5006299;28;19912;-84
2021/12/26 00:23:55;;;;;;;;;;;4.00;94.80;;;;;;5031705;28;20397;-84
2021/12/26 00:26:22;;;;;;;;;;;4.10;94.80;;;;;;5013978;28;19912;-85
2021/12/26 00:28:49;;;;;;;;;;;4.10;94.80;;;;;;5011903;28;19921;-84
2021/12/26 00:31:19;;;;;;;;;;;4.00;94.80;;;;;;5035846;28;19909;-84
2021/12/26 00:33:46;;;;;;;;;;;4.10;94.80;;;;;;5015179;28;19927;-85
2021/12/26 00:36:13;;;;;;;;;;;4.10;95.10;;;;;;5016026;28;20270;-85
2021/12/26 00:38:40;;;;;;;;;;;4.00;94.70;;;;;;5031889;28;19932;-84
2021/12/26 00:41:07;;;;;;;;;;;4.00;94.70;;;;;;5014592;28;20042;-85
2021/12/26 00:43:34;;;;;;;;;;;4.00;94.80;;;;;;5020370;28;20205;-85
2021/12/26 00:46:01;;;;;;;;;;;4.00;94.80;;;;;;5011294;28;20213;-85
2021/12/26 00:48:28;;;;;;;;;;;4.00;94.80;;;;;;5027161;28;20282;-84
2021/12/26 00:50:55;;;;;;;;;;;4.00;94.80;;;;;;5006685;28;20098;-84
2021/12/26 00:53:22;;;;;;;;;;;4.00;94.80;;;;;;5023933;28;19909;-85
2021/12/26 00:55:50;;;;;;;;;;;4.00;94.80;;;;;;5024840;28;19921;-84
2021/12/26 00:58:17;;;;;;;;;;;3.90;94.70;;;;;;5017454;28;20270;-85
2021/12/26 01:00:45;;;;;;;;;;;4.00;94.80;;;;;;5016815;28;20128;-84
2021/12/26 01:03:13;;;;;;;;;;;4.00;94.80;;;;;;5028740;28;19919;-84
2021/12/26 01:05:41;;;;;;;;;;;3.90;94.80;;;;;;5007596;28;19927;-84
2021/12/26 01:08:10;;;;;;;;;;;3.90;94.80;;;;;;5032190;28;19911;-84
2021/12/26 01:11:04;;;;;;;;;;;4.00;94.90;;;;;;5019776;28;19913;-85
2021/12/26 01:13:37;;;;;;;;;;;3.90;94.90;;;;;;5026405;28;19912;-85
2021/12/26 01:16:09;;;;;;;;;;;4.00;94.90;;;;;;5017717;28;19909;-85
2021/12/26 01:18:37;;;;;;;;;;;3.90;94.90;;;;;;5019404;28;19916;-84
2021/12/26 01:21:27;;;;;;;;;;;3.90;94.90;;;;;;5027318;28;20374;-84
2021/12/26 01:23:57;;;;;;;;;;;3.90;94.90;;;;;;5020730;28;19908;-84
2021/12/26 01:26:25;;;;;;;;;;;4.00;94.90;;;;;;5030922;28;19919;-84
2021/12/26 01:28:52;;;;;;;;;;;4.00;95.00;;;;;;5010759;28;20760;-84
2021/12/26 01:31:20;;;;;;;;;;;4.00;94.90;;;;;;5020216;28;19919;-84
2021/12/26 01:33:48;;;;;;;;;;;4.00;95.00;;;;;;5016744;28;20212;-84
2021/12/26 01:36:15;;;;;;;;;;;4.00;95.00;;;;;;5021728;28;20197;-84
2021/12/26 01:38:42;;;;;;;;;;;4.00;95.00;;;;;;5020891;28;19930;-84
2021/12/26 01:41:10;;;;;;;;;;;4.00;95.00;;;;;;5019792;28;20259;-84
2021/12/26 01:43:38;;;;;;;;;;;4.00;95.00;;;;;;5019101;28;19987;-84
2021/12/26 01:46:05;;;;;;;;;;;4.00;94.90;;;;;;5021654;28;19913;-84
2021/12/26 01:48:32;;;;;;;;;;;4.00;95.00;;;;;;5029435;28;19917;-84
2021/12/26 01:50:59;;;;;;;;;;;4.00;95.00;;;;;;5020563;28;19923;-84
2021/12/26 01:53:35;;;;;;;;;;;4.00;95.00;;;;;;5008437;28;19928;-84
2021/12/26 01:56:03;;;;;;;;;;;4.00;95.00;;;;;;5024965;28;19909;-84
2021/12/26 01:58:31;;;;;;;;;;;4.00;95.00;;;;;;5028793;28;19909;-84
2021/12/26 02:00:59;;;;;;;;;;;4.00;95.00;;;;;;5020504;28;19931;-86
2021/12/26 02:03:27;;;;;;;;;;;4.00;95.00;;;;;;5020023;28;20221;-86
2021/12/26 02:05:54;;;;;;;;;;;4.00;95.00;;;;;;5023936;28;20095;-86
2021/12/26 02:08:21;;;;;;;;;;;4.10;95.00;;;;;;5021217;28;19916;-86
2021/12/26 02:10:48;;;;;;;;;;;4.00;95.10;;;;;;5039918;28;20558;-86
2021/12/26 02:13:15;;;;;;;;;;;4.00;95.10;;;;;;5030944;28;19915;-86
2021/12/26 02:15:42;;;;;;;;;;;4.10;95.10;;;;;;5007620;28;20550;-85
2021/12/26 02:18:09;;;;;;;;;;;4.10;95.10;;;;;;5026395;28;19912;-86
2021/12/26 02:28:46;;;;;;;;;;;4.10;95.40;;;;;;5021110;28;19913;-86
2021/12/26 02:31:14;;;;;;;;;;;4.00;95.10;;;;;;5028281;28;20389;-86
2021/12/26 02:33:42;;;;;;;;;;;4.10;95.10;;;;;;5013750;28;19924;-86
2021/12/26 02:36:09;;;;;;;;;;;4.10;95.10;;;;;;5028143;28;20380;-86
2021/12/26 02:38:36;;;;;;;;;;;4.10;95.10;;;;;;5026714;28;19909;-86
2021/12/26 02:41:03;;;;;;;;;;;4.10;95.20;;;;;;5020348;28;19912;-86
2021/12/26 02:43:32;;;;;;;;;;;4.10;95.20;;;;;;5028464;28;19915;-85
2021/12/26 02:46:05;;;;;;;;;;;4.10;95.20;;;;;;5031105;28;20353;-86
2021/12/26 02:48:32;;;;;;;;;;;4.10;95.20;;;;;;5018262;28;19995;-85
2021/12/26 02:51:00;;;;;;;;;;;4.10;95.20;;;;;;5009391;28;19939;-85
2021/12/26 02:53:28;;;;;;;;;;;4.10;95.20;;;;;;5018376;28;19908;-86
2021/12/26 02:55:56;;;;;;;;;;;4.10;95.20;;;;;;5004077;28;19943;-86
2021/12/26 02:58:23;;;;;;;;;;;4.10;95.20;;;;;;5028047;28;19905;-86
2021/12/26 03:00:53;;;;;;;;;;;4.10;95.20;;;;;;5022663;28;20132;-86
2021/12/26 03:03:20;;;;;;;;;;;4.10;95.20;;;;;;5017582;28;19925;-85
2021/12/26 03:05:54;;;;;;;;;;;4.10;95.20;;;;;;5011940;28;20050;-86
2021/12/26 03:08:21;;;;;;;;;;;4.10;95.20;;;;;;5026540;28;20285;-85
2021/12/26 03:10:47;;;;;;;;;;;4.10;95.20;;;;;;5008231;28;19920;-86
2021/12/26 03:13:15;;;;;;;;;;;4.10;95.20;;;;;;5029093;28;20421;-86
2021/12/26 03:15:42;;;;;;;;;;;4.10;95.20;;;;;;5027666;28;19943;-86
2021/12/26 03:18:09;;;;;;;;;;;4.10;95.30;;;;;;5018249;28;20350;-85
2021/12/26 03:20:38;;;;;;;;;;;4.10;95.20;;;;;;5007137;28;19909;-85
2021/12/26 03:23:06;;;;;;;;;;;4.20;95.30;;;;;;5036536;28;19916;-86
2021/12/26 03:25:35;;;;;;;;;;;4.20;95.30;;;;;;5020015;28;19915;-86
2021/12/26 03:28:03;;;;;;;;;;;4.20;95.30;;;;;;5013450;28;19915;-86
2021/12/26 03:30:31;;;;;;;;;;;4.20;95.30;;;;;;5021659;28;20369;-85
2021/12/26 03:32:59;;;;;;;;;;;4.20;95.20;;;;;;5018401;28;20140;-86
2021/12/26 03:35:27;;;;;;;;;;;4.20;95.20;;;;;;5032800;28;19917;-86
2021/12/26 03:37:55;;;;;;;;;;;4.20;95.20;;;;;;5014187;28;20007;-86
2021/12/26 03:40:21;;;;;;;;;;;4.20;95.20;;;;;;5021304;28;20365;-86
2021/12/26 03:42:51;;;;;;;;;;;4.20;95.30;;;;;;5008977;28;19939;-86
2021/12/26 03:45:18;;;;;;;;;;;4.20;95.30;;;;;;5024870;28;19909;-86
2021/12/26 03:47:49;;;;;;;;;;;4.20;95.30;;;;;;5006696;28;20632;-86
2021/12/26 03:50:19;;;;;;;;;;;4.20;95.30;;;;;;5046293;28;20369;-85
2021/12/26 03:52:47;;;;;;;;;;;4.20;95.20;;;;;;5018082;28;20385;-86
2021/12/26 03:55:14;;;;;;;;;;;4.20;95.40;;;;;;5027630;28;19912;-86
2021/12/26 03:57:41;;;;;;;;;;;4.20;95.30;;;;;;5006467;28;20403;-85
2021/12/26 04:00:08;;;;;;;;;;;4.20;95.30;;;;;;5032869;28;19912;-85
2021/12/26 04:02:35;;;;;;;;;;;4.20;95.30;;;;;;5011285;28;19915;-86
2021/12/26 04:05:03;;;;;;;;;;;4.20;95.40;;;;;;5028228;28;20019;-86
2021/12/26 04:07:30;;;;;;;;;;;4.20;95.30;;;;;;5020482;28;19933;-86
2021/12/26 04:09:57;;;;;;;;;;;4.20;95.30;;;;;;5018795;28;20082;-86
2021/12/26 04:12:23;;;;;;;;;;;4.20;95.40;;;;;;5024138;28;19920;-86
2021/12/26 04:14:50;;;;;;;;;;;4.20;95.40;;;;;;5005648;28;20006;-86
2021/12/26 04:17:17;;;;;;;;;;;4.20;95.40;;;;;;5024361;28;19916;-86
2021/12/26 04:19:44;;;;;;;;;;;4.20;95.40;;;;;;5019328;28;20120;-86
2021/12/26 04:22:11;;;;;;;;;;;4.20;95.40;;;;;;5026715;28;19908;-86
2021/12/26 04:24:38;;;;;;;;;;;4.20;95.40;;;;;;5020498;28;19912;-86
2021/12/26 04:27:05;;;;;;;;;;;4.20;95.40;;;;;;5026396;28;19909;-86
2021/12/26 04:29:31;;;;;;;;;;;4.20;95.40;;;;;;5016756;28;19919;-86
2021/12/26 04:31:58;;;;;;;;;;;4.20;95.40;;;;;;5012257;28;19913;-86
2021/12/26 04:34:25;;;;;;;;;;;4.20;95.40;;;;;;5019848;28;20377;-85
2021/12/26 04:36:52;;;;;;;;;;;4.20;95.40;;;;;;5025150;28;20109;-86
2021/12/26 04:39:19;;;;;;;;;;;4.20;95.40;;;;;;5011546;28;19909;-86
2021/12/26 04:41:46;;;;;;;;;;;4.20;95.40;;;;;;5028572;28;19909;-86
2021/12/26 04:44:13;;;;;;;;;;;4.30;95.50;;;;;;5018742;28;19912;-86
2021/12/26 04:46:40;;;;;;;;;;;4.20;95.40;;;;;;5016761;28;20362;-85
2021/12/26 04:49:07;;;;;;;;;;;4.20;95.40;;;;;;5022734;28;19917;-85
2021/12/26 04:51:34;;;;;;;;;;;4.30;95.40;;;;;;5025745;28;19923;-85
2021/12/26 04:54:01;;;;;;;;;;;4.30;95.50;;;;;;5020504;28;19935;-86
2021/12/26 04:56:28;;;;;;;;;;;4.30;95.50;;;;;;5019524;28;19909;-86
2021/12/26 04:58:55;;;;;;;;;;;4.30;95.50;;;;;;5017418;28;20013;-85
2021/12/26 05:01:22;;;;;;;;;;;4.30;95.50;;;;;;5026536;28;19908;-86
2021/12/26 05:03:49;;;;;;;;;;;4.30;95.50;;;;;;5017958;28;19917;-86
2021/12/26 05:06:15;;;;;;;;;;;4.30;95.50;;;;;;5023599;28;19905;-86
2021/12/26 05:08:42;;;;;;;;;;;4.30;95.50;;;;;;5024227;28;20393;-86
2021/12/26 05:11:09;;;;;;;;;;;4.30;95.50;;;;;;5024652;28;19913;-86
2021/12/26 05:13:36;;;;;;;;;;;4.30;95.50;;;;;;5015806;28;19908;-85
2021/12/26 05:16:03;;;;;;;;;;;4.30;95.50;;;;;;5035276;28;20293;-85
2021/12/26 05:18:30;;;;;;;;;;;4.30;95.40;;;;;;5013681;28;19909;-85
2021/12/26 05:20:57;;;;;;;;;;;4.30;95.40;;;;;;5016017;28;19909;-86
2021/12/26 05:23:24;;;;;;;;;;;4.40;95.40;;;;;;5022513;28;20168;-86
2021/12/26 05:25:51;;;;;;;;;;;4.30;95.40;;;;;;5016698;28;19923;-86
2021/12/26 05:28:17;;;;;;;;;;;4.40;95.40;;;;;;5028263;28;19909;-86
2021/12/26 05:30:44;;;;;;;;;;;4.40;95.40;;;;;;5012548;28;19911;-85
2021/12/26 05:33:11;;;;;;;;;;;4.40;95.30;;;;;;5011367;28;20373;-85
2021/12/26 05:35:38;;;;;;;;;;;4.40;95.30;;;;;;5016323;28;19909;-86
2021/12/26 05:38:05;;;;;;;;;;;4.40;95.40;;;;;;5024173;28;19905;-86
2021/12/26 05:40:32;;;;;;;;;;;4.30;95.30;;;;;;5031253;28;20204;-85
2021/12/26 05:42:59;;;;;;;;;;;4.40;95.30;;;;;;5023617;28;19913;-86
2021/12/26 05:45:26;;;;;;;;;;;4.40;95.30;;;;;;5016616;28;19909;-85
2021/12/26 05:47:52;;;;;;;;;;;4.40;95.40;;;;;;5017346;28;19943;-88
2021/12/26 05:50:20;;;;;;;;;;;4.40;95.40;;;;;;5033951;28;19905;-88
2021/12/26 05:52:48;;;;;;;;;;;4.40;95.40;;;;;;5010985;28;20112;-89
2021/12/26 05:55:15;;;;;;;;;;;4.40;95.40;;;;;;5023911;28;19909;-85
2021/12/26 05:57:42;;;;;;;;;;;4.40;95.40;;;;;;5015665;28;19919;-85
2021/12/26 06:00:10;;;;;;;;;;;4.40;95.40;;;;;;5018249;28;20300;-86
2021/12/26 06:02:37;;;;;;;;;;;4.40;95.40;;;;;;5009460;28;19917;-86
2021/12/26 06:05:04;;;;;;;;;;;4.40;95.40;;;;;;5024302;28;19916;-85
2021/12/26 06:07:31;;;;;;;;;;;4.40;95.40;;;;;;5002636;28;20217;-86
2021/12/26 06:09:58;;;;;;;;;;;4.40;95.40;;;;;;5033373;28;19913;-86
2021/12/26 06:12:25;;;;;;;;;;;4.40;95.40;;;;;;5010165;28;20003;-86
2021/12/26 06:14:52;;;;;;;;;;;4.40;95.40;;;;;;5026171;28;19998;-86
2021/12/26 06:17:19;;;;;;;;;;;4.40;95.40;;;;;;5024265;28;19919;-85
2021/12/26 06:19:45;;;;;;;;;;;4.50;95.40;;;;;;5013169;28;20505;-86
2021/12/26 06:22:12;;;;;;;;;;;4.50;95.40;;;;;;5027608;28;19923;-85
2021/12/26 06:24:39;;;;;;;;;;;4.50;95.30;;;;;;5015285;28;19934;-86
2021/12/26 06:27:06;;;;;;;;;;;4.50;95.40;;;;;;5031916;28;19915;-85
2021/12/26 06:29:33;;;;;;;;;;;4.50;95.40;;;;;;5032450;28;19908;-86
2021/12/26 06:31:59;;;;;;;;;;;4.50;95.40;;;;;;5024827;28;20395;-86
2021/12/26 06:34:26;;;;;;;;;;;4.50;95.30;;;;;;5013032;28;19939;-85
2021/12/26 06:36:53;;;;;;;;;;;4.50;95.40;;;;;;5024694;28;19923;-85
2021/12/26 06:39:20;;;;;;;;;;;4.50;95.40;;;;;;5019874;28;19913;-85
2021/12/26 06:41:47;;;;;;;;;;;4.50;95.40;;;;;;5027774;28;19917;-85
2021/12/26 06:44:14;;;;;;;;;;;4.50;95.40;;;;;;5014638;28;19923;-86
2021/12/26 06:46:41;;;;;;;;;;;4.60;95.50;;;;;;5023956;28;20105;-85
2021/12/26 06:49:07;;;;;;;;;;;4.60;95.50;;;;;;5025416;28;19919;-85
2021/12/26 06:51:34;;;;;;;;;;;4.60;95.50;;;;;;5013998;28;20095;-85
2021/12/26 06:54:01;;;;;;;;;;;4.60;95.50;;;;;;5037304;28;19909;-85
2021/12/26 06:56:28;;;;;;;;;;;4.60;95.50;;;;;;5025522;28;19917;-85
2021/12/26 06:58:55;;;;;;;;;;;4.70;95.50;;;;;;5018243;28;20377;-85
2021/12/26 07:01:22;;;;;;;;;;;4.60;95.40;;;;;;5018899;28;20357;-85
2021/12/26 07:03:49;;;;;;;;;;;4.70;95.50;;;;;;5034944;28;19912;-85
2021/12/26 07:06:16;;;;;;;;;;;4.70;95.50;;;;;;5024040;28;19919;-85
2021/12/26 07:08:42;;;;;;;;;;;4.70;95.50;;;;;;5034790;28;20098;-85
2021/12/26 07:11:09;;;;;;;;;;;4.70;95.50;;;;;;5026624;28;19915;-85
2021/12/26 07:13:36;;;;;;;;;;;4.70;95.60;;;;;;5005854;28;20141;-85
2021/12/26 07:16:03;;;;;;;;;;;4.70;95.50;;;;;;5014951;28;19909;-85
2021/12/26 07:18:30;;;;;;;;;;;4.70;95.50;;;;;;5026435;28;20499;-85
2021/12/26 07:20:57;;;;;;;;;;;4.70;95.50;;;;;;5032429;28;19915;-86
2021/12/26 07:23:23;;;;;;;;;;;4.80;95.50;;;;;;5011351;28;19923;-85
2021/12/26 07:25:50;;;;;;;;;;;4.70;95.50;;;;;;5033174;28;20345;-86
2021/12/26 07:28:17;;;;;;;;;;;4.80;95.60;;;;;;5013642;28;19913;-85
2021/12/26 07:30:44;;;;;;;;;;;4.80;95.60;;;;;;5020846;28;20137;-85
2021/12/26 07:33:11;;;;;;;;;;;4.80;95.60;;;;;;5038766;28;19917;-85
2021/12/26 07:35:38;;;;;;;;;;;4.80;95.60;;;;;;5017236;28;20373;-85
2021/12/26 07:38:05;;;;;;;;;;;4.80;95.60;;;;;;5018182;28;19935;-85
2021/12/26 07:40:31;;;;;;;;;;;4.80;95.60;;;;;;5011959;28;19939;-85
2021/12/26 07:42:58;;;;;;;;;;;4.80;95.60;;;;;;5026452;28;19919;-85
2021/12/26 07:45:25;;;;;;;;;;;4.80;95.60;;;;;;5005648;28;20141;-85
2021/12/26 07:47:52;;;;;;;;;;;4.80;95.60;;;;;;5012109;28;19917;-85
2021/12/26 07:50:19;;;;;;;;;;;4.80;95.60;;;;;;5013561;28;20365;-86
2021/12/26 07:52:47;;;;;;;;;;;4.80;95.60;;;;;;5015601;28;19944;-85
2021/12/26 07:55:14;;;;;;;;;;;4.80;95.60;;;;;;5021520;28;19920;-85
2021/12/26 07:57:47;;;;;;;;;;;4.80;95.60;;;;;;5027135;28;20281;-85
2021/12/26 08:00:15;;;;;;;;;;;4.80;95.60;;;;;;5007543;28;19909;-85
2021/12/26 08:02:42;;;;;;;;;;;4.80;95.60;;;;;;5026868;28;20385;-86
2021/12/26 08:05:09;;;;;;;;;;;4.80;95.60;;;;;;5034025;28;19908;-85
2021/12/26 08:07:36;;;;;;;;;;;4.80;95.60;;;;;;5014763;28;20427;-85
2021/12/26 08:10:03;;;;;;;;;;;4.80;95.60;;;;;;5020580;28;19912;-85
2021/12/26 08:12:30;;;;;;;;;;;4.80;95.60;;;;;;5023339;28;19916;-85
2021/12/26 08:14:59;;;;;;;;;;;4.80;95.70;;;;;;5013726;28;19935;-85
2021/12/26 08:17:26;;;;;;;;;;;4.80;95.70;;;;;;5000907;28;19917;-85
2021/12/26 08:19:52;;;;;;;;;;;4.90;95.70;;;;;;5026583;28;19915;-85
2021/12/26 08:22:19;;;;;;;;;;;4.90;95.70;;;;;;5011064;28;20381;-86
2021/12/26 08:24:46;;;;;;;;;;;4.90;95.70;;;;;;5030794;28;19919;-85
2021/12/26 08:27:14;;;;;;;;;;;4.90;95.70;;;;;;5024116;28;20277;-85
2021/12/26 08:29:41;;;;;;;;;;;4.90;95.80;;;;;;5010034;28;20176;-85
2021/12/26 08:32:13;;;;;;;;;;;4.90;95.80;;;;;;5011929;28;20270;-85
2021/12/26 08:34:40;;;;;;;;;;;4.90;95.80;;;;;;5021885;28;19917;-86
2021/12/26 08:37:07;;;;;;;;;;;5.00;95.80;;;;;;5017490;28;19939;-85
2021/12/26 08:39:35;;;;;;;;;;;5.00;96.20;;;;;;5018275;28;20520;-85
2021/12/26 08:42:03;;;;;;;;;;;5.00;95.90;;;;;;5025471;28;19913;-85
2021/12/26 08:44:29;;;;;;;;;;;5.00;95.90;;;;;;5005438;28;22852;-85
2021/12/26 08:46:56;;;;;;;;;;;5.10;95.90;;;;;;5006713;28;20294;-85
2021/12/26 08:49:23;;;;;;;;;;;5.10;95.90;;;;;;5023630;28;19909;-85
2021/12/26 08:51:50;;;;;;;;;;;5.10;96.00;;;;;;5010801;28;19913;-85
2021/12/26 08:54:17;;;;;;;;;;;5.20;96.00;;;;;;5015581;28;20378;-85
2021/12/26 08:56:44;;;;;;;;;;;5.20;96.00;;;;;;5013524;28;20582;-85
2021/12/26 08:59:11;;;;;;;;;;;5.20;95.90;;;;;;5021831;28;20273;-86
2021/12/26 09:01:37;;;;;;;;;;;5.30;96.10;;;;;;5004600;28;20390;-85
2021/12/26 09:04:04;;;;;;;;;;;5.30;96.00;;;;;;5020444;28;20401;-85
2021/12/26 09:06:31;;;;;;;;;;;5.30;96.00;;;;;;5015118;28;20101;-86
2021/12/26 09:08:58;;;;;;;;;;;5.30;96.00;;;;;;5008461;28;20285;-85
2021/12/26 09:11:25;;;;;;;;;;;5.40;96.10;;;;;;5035618;28;19923;-85
2021/12/26 09:13:52;;;;;;;;;;;5.40;96.10;;;;;;5013386;28;19916;-85
2021/12/26 09:16:19;;;;;;;;;;;5.40;96.10;;;;;;5021111;28;20213;-85
2021/12/26 09:18:46;;;;;;;;;;;5.40;96.10;;;;;;5004873;28;20365;-85
2021/12/26 09:21:13;;;;;;;;;;;5.50;96.10;;;;;;5018918;28;19913;-85
2021/12/26 09:23:39;;;;;;;;;;;5.50;96.20;;;;;;5021927;28;22090;-85
2021/12/26 09:26:06;;;;;;;;;;;5.50;96.20;;;;;;5018660;28;20365;-85
2021/12/26 09:28:36;;;;;;;;;;;5.60;96.30;;;;;;5028265;28;19909;-85
2021/12/26 09:31:03;;;;;;;;;;;5.70;96.30;;;;;;5023642;28;19913;-85
2021/12/26 09:33:30;;;;;;;;;;;5.70;96.30;;;;;;5013345;28;20219;-85
2021/12/26 09:35:57;;;;;;;;;;;5.70;96.30;;;;;;5017602;28;19919;-85
2021/12/26 09:38:24;;;;;;;;;;;5.80;96.30;;;;;;5022525;28;20053;-85
2021/12/26 09:40:51;;;;;;;;;;;5.80;96.30;;;;;;5014157;28;20121;-85
2021/12/26 09:43:18;;;;;;;;;;;5.90;96.40;;;;;;5034544;28;19909;-85
2021/12/26 09:45:45;;;;;;;;;;;5.90;96.40;;;;;;5022137;28;20285;-85
2021/12/26 09:48:11;;;;;;;;;;;6.00;96.50;;;;;;5012008;28;19909;-85
2021/12/26 09:50:38;;;;;;;;;;;6.10;96.50;;;;;;4996231;28;19920;-85
2021/12/26 09:53:05;;;;;;;;;;;6.10;96.60;;;;;;5018687;28;19913;-85
2021/12/26 09:55:32;;;;;;;;;;;6.20;96.60;;;;;;5008429;28;19909;-85
2021/12/26 09:57:59;;;;;;;;;;;6.30;96.60;;;;;;5018426;28;20421;-85
2021/12/26 10:00:33;;;;;;;;;;;6.30;96.70;;;;;;5025238;28;19919;-85
2021/12/26 10:03:08;;;;;;;;;;;6.40;96.90;;;;;;5019277;28;20290;-85
2021/12/26 10:05:53;;;;;;;;;;;6.60;97.10;;;;;;5007300;28;19956;-85
2021/12/26 10:08:21;;;;;;;;;;;6.80;97.40;;;;;;5019912;28;20370;-88
2021/12/26 10:11:08;;;;;;;;;;;7.10;97.90;;;;;;4990109;28;20440;-85
2021/12/26 10:13:45;;;;;;;;;;;7.50;98.20;;;;;;5014059;28;20361;-85
2021/12/26 10:16:14;;;;;;;;;;;7.80;98.60;;;;;;5024512;28;19953;-85
2021/12/26 10:18:42;;;;;;;;;;;7.90;98.30;;;;;;5015831;28;19916;-85
2021/12/26 10:21:22;;;;;;;;;;;8.00;98.00;;;;;;5007387;28;20430;-85
2021/12/26 10:23:50;;;;;;;;;;;8.00;97.60;;;;;;5024065;28;19913;-85
2021/12/26 10:26:21;;;;;;;;;;;8.00;97.30;;;;;;5016990;28;20141;-85
2021/12/26 10:29:03;;;;;;;;;;;8.00;97.20;;;;;;5014981;28;19909;-85
2021/12/26 10:31:30;;;;;;;;;;;7.90;97.10;;;;;;5031610;28;19909;-85
2021/12/26 10:33:57;;;;;;;;;;;7.80;97.00;;;;;;5031584;28;20000;-85
2021/12/26 10:36:26;;;;;;;;;;;7.80;96.90;;;;;;5017465;28;19931;-85
2021/12/26 10:39:05;;;;;;;;;;;7.70;96.90;;;;;;5024588;28;19931;-85
2021/12/26 10:41:32;;;;;;;;;;;7.70;97.00;;;;;;5042020;28;19919;-85
2021/12/26 10:43:59;;;;;;;;;;;7.70;97.00;;;;;;5013424;28;19987;-87
2021/12/26 10:46:26;;;;;;;;;;;7.70;97.00;;;;;;5033792;28;19939;-85
2021/12/26 10:48:53;;;;;;;;;;;7.70;97.10;;;;;;5028698;28;19908;-85
2021/12/26 10:51:33;;;;;;;;;;;7.70;97.20;;;;;;5021927;28;19916;-85
2021/12/26 10:54:13;;;;;;;;;;;7.70;97.20;;;;;;5030196;28;20124;-86
2021/12/26 10:56:39;;;;;;;;;;;7.80;97.20;;;;;;5029874;28;20293;-85
2021/12/26 10:59:19;;;;;;;;;;;7.80;97.20;;;;;;5011552;28;19988;-85
2021/12/26 11:01:48;;;;;;;;;;;7.80;97.20;;;;;;5025706;28;19909;-85
2021/12/26 11:04:15;;;;;;;;;;;7.80;97.20;;;;;;5016088;28;20209;-85
2021/12/26 11:07:00;;;;;;;;;;;7.90;97.20;;;;;;5019859;28;21183;-88
2021/12/26 11:09:27;;;;;;;;;;;7.90;97.20;;;;;;5022585;28;20388;-88
2021/12/26 11:12:12;;;;;;;;;;;7.90;97.10;;;;;;5034176;28;19912;-87
2021/12/26 11:14:58;;;;;;;;;;;7.90;97.10;;;;;;5011189;28;20401;-87
2021/12/26 11:17:30;;;;;;;;;;;8.00;97.10;;;;;;5024524;28;19923;-85
2021/12/26 11:19:57;;;;;;;;;;;8.00;97.10;;;;;;5014438;28;19913;-85
2021/12/26 11:22:24;;;;;;;;;;;8.00;97.10;;;;;;5018854;28;19915;-85
2021/12/26 11:24:53;;;;;;;;;;;8.00;97.10;;;;;;5028094;28;20096;-85
2021/12/26 11:27:20;;;;;;;;;;;8.00;97.10;;;;;;5025816;28;20391;-85
2021/12/26 11:29:52;;;;;;;;;;;8.10;97.10;;;;;;5006326;28;20117;-85
2021/12/26 11:32:20;;;;;;;;;;;8.10;97.10;;;;;;5032181;28;19923;-85
2021/12/26 11:34:48;;;;;;;;;;;8.10;97.10;;;;;;5022115;28;20261;-85
2021/12/26 11:37:15;;;;;;;;;;;8.10;97.20;;;;;;5027407;28;19918;-84
2021/12/26 11:39:43;;;;;;;;;;;8.20;97.40;;;;;;4999475;28;20243;-85
2021/12/26 11:42:16;;;;;;;;;;;8.40;97.70;;;;;;5020259;28;19916;-85
2021/12/26 11:45:10;;;;;;;;;;;8.60;98.00;;;;;;5029532;28;20439;-85
2021/12/26 11:47:40;;;;;;;;;;;8.90;98.40;;;;;;5003074;28;20110;-85
2021/12/26 11:50:10;;;;;;;;;;;9.30;98.80;;;;;;5029425;28;20249;-85
2021/12/26 11:52:40;;;;;;;;;;;9.60;98.90;;;;;;5024865;28;20120;-85
2021/12/26 11:55:16;;;;;;;;;;;10.00;98.90;;;;;;5011443;28;19913;-85
2021/12/26 11:58:02;;;;;;;;;;;10.30;98.90;;;;;;5024167;28;19916;-85
2021/12/26 12:00:37;;;;;;;;;;;10.50;98.60;;;;;;5019531;28;19908;-85
2021/12/26 12:03:06;;;;;;;;;;;10.70;98.40;;;;;;5016575;28;19923;-86
2021/12/26 12:05:36;;;;;;;;;;;10.70;97.90;;;;;;5031768;28;19919;-85
2021/12/26 12:08:16;;;;;;;;;;;10.70;97.50;;;;;;5019702;28;19928;-85
2021/12/26 12:10:52;;;;;;;;;;;10.60;97.20;;;;;;5008820;28;21218;-85
2021/12/26 12:13:22;;;;;;;;;;;10.50;97.00;;;;;;5030144;28;19909;-85
2021/12/26 12:15:51;;;;;;;;;;;10.40;96.90;;;;;;5027866;28;20450;-85
2021/12/26 12:18:20;;;;;;;;;;;10.30;96.80;;;;;;5012129;28;19913;-85
2021/12/26 12:20:48;;;;;;;;;;;10.10;96.80;;;;;;5019100;28;20139;-85
2021/12/26 12:23:16;;;;;;;;;;;10.10;96.80;;;;;;5028486;28;19909;-85
2021/12/26 12:25:49;;;;;;;;;;;10.00;96.80;;;;;;5030278;28;19916;-85
2021/12/26 12:28:24;;;;;;;;;;;9.90;96.70;;;;;;5014364;28;20328;-85
2021/12/26 12:30:53;;;;;;;;;;;9.80;96.70;;;;;;5019553;28;19912;-85
2021/12/26 12:33:30;;;;;;;;;;;9.80;96.80;;;;;;5013426;28;20377;-86
2021/12/26 12:35:57;;;;;;;;;;;9.80;96.80;;;;;;5034438;28;19921;-85
2021/12/26 12:38:29;;;;;;;;;;;9.70;96.80;;;;;;5032352;28;19924;-85
2021/12/26 12:40:57;;;;;;;;;;;9.70;96.80;;;;;;5032331;28;19913;-85
2021/12/26 12:43:25;;;;;;;;;;;9.70;96.80;;;;;;5019800;28;19940;-85
2021/12/26 12:45:52;;;;;;;;;;;9.60;96.80;;;;;;5022689;28;20065;-85
2021/12/26 12:48:32;;;;;;;;;;;9.60;96.80;;;;;;5020376;28;19909;-85
2021/12/26 12:51:19;;;;;;;;;;;9.60;96.80;;;;;;5026440;28;19935;-85
2021/12/26 12:53:50;;;;;;;;;;;9.50;96.80;;;;;;5019795;28;20099;-85
2021/12/26 12:56:26;;;;;;;;;;;9.50;96.80;;;;;;5027837;28;19916;-85
2021/12/26 12:59:12;;;;;;;;;;;9.50;96.70;;;;;;5013190;28;19917;-85
2021/12/26 13:01:59;;;;;;;;;;;9.40;96.70;;;;;;5013628;28;19917;-85
2021/12/26 13:04:46;;;;;;;;;;;9.40;96.70;;;;;;5015103;28;19931;-85
2021/12/26 13:07:14;;;;;;;;;;;9.40;96.70;;;;;;4997821;28;19909;-85
2021/12/26 13:09:45;;;;;;;;;;;9.30;96.60;;;;;;5014630;28;20473;-85
2021/12/26 13:12:13;;;;;;;;;;;9.30;96.60;;;;;;5028120;28;20454;-85
2021/12/26 13:14:42;;;;;;;;;;;9.20;96.60;;;;;;5008549;28;20105;-86
2021/12/26 13:17:11;;;;;;;;;;;9.30;96.60;;;;;;5011971;28;19921;-85
2021/12/26 13:19:38;;;;;;;;;;;9.30;96.60;;;;;;5036501;28;19909;-85
2021/12/26 13:22:06;;;;;;;;;;;9.20;96.50;;;;;;5018399;28;20392;-85
2021/12/26 13:24:37;;;;;;;;;;;9.20;96.60;;;;;;5014430;28;20190;-85
2021/12/26 13:27:05;;;;;;;;;;;9.20;96.60;;;;;;5026981;28;19909;-86
2021/12/26 13:29:32;;;;;;;;;;;9.20;96.60;;;;;;5029144;28;19915;-85
2021/12/26 13:31:59;;;;;;;;;;;9.20;96.60;;;;;;5022335;28;19913;-85
2021/12/26 13:34:26;;;;;;;;;;;9.20;96.50;;;;;;5015018;28;20296;-85
2021/12/26 13:36:53;;;;;;;;;;;9.20;96.50;;;;;;5019242;28;20315;-85
2021/12/26 13:39:21;;;;;;;;;;;9.20;96.50;;;;;;5025639;28;19909;-86
2021/12/26 13:41:49;;;;;;;;;;;9.20;96.50;;;;;;5014251;28;19917;-85
2021/12/26 13:44:17;;;;;;;;;;;9.20;96.60;;;;;;5019195;28;20387;-85
2021/12/26 13:46:45;;;;;;;;;;;9.10;96.50;;;;;;5019857;28;19947;-85
2021/12/26 13:49:14;;;;;;;;;;;9.10;96.50;;;;;;5022894;28;19909;-85
2021/12/26 13:51:49;;;;;;;;;;;9.10;96.50;;;;;;5017319;28;20092;-85
2021/12/26 13:54:16;;;;;;;;;;;9.10;96.50;;;;;;5024978;28;20365;-85
2021/12/26 13:56:47;;;;;;;;;;;9.10;96.40;;;;;;5019957;28;19913;-85
2021/12/26 13:59:26;;;;;;;;;;;9.10;96.50;;;;;;5021052;28;19919;-85
2021/12/26 14:01:53;;;;;;;;;;;9.10;96.40;;;;;;5036845;28;19915;-86
2021/12/26 14:04:24;;;;;;;;;;;9.10;96.40;;;;;;5040787;28;19909;-85
2021/12/26 14:06:51;;;;;;;;;;;9.10;96.40;;;;;;5008830;28;19939;-85
2021/12/26 14:09:18;;;;;;;;;;;9.10;96.40;;;;;;5013017;28;19919;-86
2021/12/26 14:11:45;;;;;;;;;;;9.00;96.40;;;;;;5020232;28;20095;-85
2021/12/26 14:14:12;;;;;;;;;;;9.00;96.40;;;;;;5037369;28;19909;-85
2021/12/26 14:16:41;;;;;;;;;;;9.00;96.40;;;;;;5024179;28;19913;-85
2021/12/26 14:19:10;;;;;;;;;;;9.00;96.40;;;;;;5039819;28;19919;-86
2021/12/26 14:21:44;;;;;;;;;;;9.00;96.40;;;;;;5016837;28;20040;-85
2021/12/26 14:24:11;;;;;;;;;;;9.00;96.40;;;;;;5026057;28;19913;-85
2021/12/26 14:26:42;;;;;;;;;;;9.00;96.40;;;;;;5029192;28;19912;-85
2021/12/26 14:29:09;;;;;;;;;;;9.00;96.40;;;;;;5025704;28;19909;-85
2021/12/26 14:31:37;;;;;;;;;;;9.00;96.30;;;;;;5015604;28;20245;-86
2021/12/26 14:34:06;;;;;;;;;;;8.90;96.30;;;;;;5045602;28;19917;-85
2021/12/26 14:36:43;;;;;;;;;;;8.90;96.20;;;;;;5023484;28;19912;-85
2021/12/26 14:39:11;;;;;;;;;;;8.90;96.20;;;;;;5028720;28;19909;-85
2021/12/26 14:41:42;;;;;;;;;;;8.80;96.20;;;;;;5024147;28;20772;-86
2021/12/26 14:44:19;;;;;;;;;;;8.80;96.10;;;;;;5020928;28;20593;-86
2021/12/26 14:46:47;;;;;;;;;;;8.70;96.10;;;;;;5037659;28;19909;-86